createdAt,value
2023-03-18T00:18:38.158Z,101466.19
2023-03-18T00:21:57.909Z,101471.81
2023-03-18T00:24:32.062Z,101473.11
2023-03-18T00:27:02.509Z,101472.91
2023-03-18T00:29:30.501Z,101473.39
2023-03-18T00:32:04.207Z,101480.85
2023-03-18T00:34:51.209Z,101471.09
2023-03-18T00:37:31.121Z,101465.06
2023-03-18T00:40:07.210Z,101461.23
2023-03-18T00:43:08.125Z,101471.34
2023-03-18T00:46:00.704Z,101466.40
2023-03-18T00:52:25.526Z,101480.84
2023-03-18T00:56:52.853Z,101484.91
2023-03-18T00:59:30.589Z,101491.55
2023-03-18T01:02:25.421Z,101487.28
2023-03-18T01:05:29.051Z,101488.67
2023-03-18T01:11:04.253Z,101503.95
2023-03-18T01:15:32.347Z,101503.35
2023-03-18T01:29:27.919Z,101504.84
2023-03-18T01:32:35.002Z,101510.87
2023-03-18T01:59:56.097Z,101527.79
2023-03-18T02:10:13.502Z,101529.60
2023-03-18T02:13:37.667Z,101533.02
2023-03-18T02:17:19.013Z,101534.37
2023-03-18T02:31:59.399Z,101539.01
2023-03-18T02:34:52.078Z,101536.46
2023-03-18T02:37:38.204Z,101538.69
2023-03-18T02:40:50.663Z,101534.95
2023-03-18T02:43:32.828Z,101538.85
2023-03-18T02:46:44.747Z,101542.14
2023-03-18T02:50:13.157Z,101547.32
2023-03-18T02:52:57.332Z,101548.00
2023-03-18T02:55:48.039Z,101548.92
2023-03-18T02:58:19.685Z,101552.23
2023-03-18T03:00:49.496Z,101555.10
2023-03-18T03:03:18.721Z,101558.34
2023-03-18T03:05:53.315Z,101550.10
2023-03-18T03:08:25.005Z,101548.11
2023-03-18T03:10:54.933Z,101549.76
2023-03-18T03:13:27.134Z,101552.67
2023-03-18T03:15:58.109Z,101554.14
2023-03-18T03:18:27.059Z,101552.48
2023-03-18T03:20:58.303Z,101555.08
2023-03-18T03:23:28.135Z,101553.26
2023-03-18T03:26:04.070Z,101550.96
2023-03-18T03:28:56.612Z,101553.92
2023-03-18T03:31:41.376Z,101552.60
2023-03-18T03:44:44.015Z,101550.07
2023-03-18T03:47:24.514Z,101549.63
2023-03-18T03:50:18.643Z,101553.05
2023-03-18T03:53:18.504Z,101549.76
2023-03-18T03:58:47.333Z,101557.09
2023-03-18T04:01:29.782Z,101557.73
2023-03-18T04:04:03.268Z,101561.41
2023-03-18T04:06:34.605Z,101563.02
2023-03-18T04:12:45.228Z,101557.08
2023-03-18T04:15:32.199Z,101564.17
2023-03-18T04:18:13.006Z,101570.30
2023-03-18T04:21:05.574Z,101561.04
2023-03-18T04:23:53.573Z,101571.00
2023-03-18T04:29:52.030Z,101576.59
2023-03-18T04:32:47.918Z,101579.15
2023-03-18T04:35:54.255Z,101584.43
2023-03-18T04:38:25.746Z,101588.77
2023-03-18T04:41:04.626Z,101587.99
2023-03-18T04:43:56.463Z,101584.92
2023-03-18T04:46:34.325Z,101585.06
2023-03-18T04:49:05.096Z,101583.67
2023-03-18T04:51:34.119Z,101592.76
2023-03-18T04:54:22.669Z,101592.31
2023-03-18T04:56:53.515Z,101594.59
2023-03-18T04:59:28.814Z,101592.48
2023-03-18T05:01:58.612Z,101599.60
2023-03-18T05:06:01.007Z,101597.30
2023-03-18T05:09:08.960Z,101597.88
2023-03-18T05:11:49.801Z,101601.34
2023-03-18T05:14:44.223Z,101604.46
2023-03-18T05:17:59.983Z,101604.80
2023-03-18T05:20:38.339Z,101605.13
2023-03-18T05:23:44.532Z,101607.77
2023-03-18T05:26:24.188Z,101611.48
2023-03-18T05:29:00.583Z,101612.52
2023-03-18T05:39:55.019Z,101621.87
2023-03-18T05:42:27.821Z,101624.98
2023-03-18T05:45:02.408Z,101626.09
2023-03-18T05:47:38.085Z,101631.59
2023-03-18T05:50:14.172Z,101633.27
2023-03-18T05:52:44.899Z,101634.27
2023-03-18T05:55:20.802Z,101636.41
2023-03-18T05:57:50.840Z,101642.31
2023-03-18T06:00:20.321Z,101645.02
2023-03-18T06:02:51.096Z,101641.11
2023-03-18T06:05:21.561Z,101647.38
2023-03-18T06:07:50.405Z,101654.76
2023-03-18T06:10:19.881Z,101656.05
2023-03-18T06:12:51.707Z,101660.31
2023-03-18T06:15:23.833Z,101658.96
2023-03-18T06:17:54.510Z,101662.05
2023-03-18T06:32:10.818Z,101668.27
2023-03-18T06:58:45.085Z,101670.96
2023-03-18T17:34:03.763Z,101765.81
2023-03-18T18:16:08.876Z,101764.34
2023-03-18T18:18:41.411Z,101762.08
2023-03-18T18:24:37.174Z,101763.67
2023-03-18T18:27:19.949Z,101762.77
2023-03-18T18:33:42.676Z,101767.69
2023-03-18T18:47:50.113Z,101773.77
2023-03-18T18:50:38.113Z,101772.07
2023-03-18T19:15:47.457Z,101772.95
2023-03-18T19:36:54.005Z,101763.56
2023-03-18T19:39:40.914Z,101764.58
2023-03-18T20:06:32.718Z,101753.66
2023-03-18T20:44:22.146Z,101717.80
2023-03-18T20:53:52.984Z,101708.15
2023-03-18T20:56:53.943Z,101705.26
2023-03-18T20:59:27.409Z,101701.39
2023-03-18T21:01:56.333Z,101701.74
2023-03-18T21:04:27.392Z,101700.66
2023-03-18T21:09:55.961Z,101690.92
2023-03-18T21:18:40.566Z,101691.95
2023-03-18T21:21:33.009Z,101688.66
2023-03-18T21:24:01.954Z,101688.17
2023-03-18T21:29:22.710Z,101688.95
2023-03-18T21:31:54.176Z,101688.13
2023-03-18T21:34:25.719Z,101682.69
2023-03-18T21:36:59.488Z,101681.05
2023-03-18T21:39:36.561Z,101680.15
2023-03-18T21:48:09.255Z,101674.10
2023-03-18T21:54:00.132Z,101667.43
2023-03-18T21:56:34.017Z,101666.42
2023-03-18T21:59:03.462Z,101668.23
2023-03-18T22:01:39.209Z,101666.27
2023-03-18T22:04:08.600Z,101670.06
2023-03-18T22:06:38.794Z,101669.02
2023-03-18T22:09:14.708Z,101667.80
2023-03-18T22:12:06.684Z,101657.77
2023-03-18T22:14:39.357Z,101663.13
2023-03-18T22:17:33.519Z,101658.56
2023-03-18T22:20:03.419Z,101662.25
2023-03-18T22:22:37.004Z,101656.19
2023-03-18T22:25:42.612Z,101648.30
2023-03-18T22:28:15.218Z,101650.42
2023-03-18T22:30:46.525Z,101650.06
2023-03-18T22:33:20.407Z,101650.63
2023-03-18T22:35:49.123Z,101651.35
2023-03-18T22:38:21.738Z,101653.22
2023-03-18T22:40:53.387Z,101650.48
2023-03-18T22:43:27.967Z,101650.02
2023-03-18T22:45:59.034Z,101649.24
2023-03-18T22:48:29.654Z,101648.80
2023-03-18T22:51:00.112Z,101650.54
2023-03-18T22:53:39.762Z,101646.84
2023-03-18T22:56:14.065Z,101641.27
2023-03-18T22:58:44.073Z,101642.54
2023-03-18T23:01:28.882Z,101638.91
2023-03-18T23:04:05.392Z,101638.40
2023-03-18T23:06:35.514Z,101634.86
2023-03-18T23:09:06.260Z,101631.15
2023-03-18T23:11:34.937Z,101632.40
2023-03-18T23:14:04.934Z,101634.55
2023-03-18T23:16:34.083Z,101629.74
2023-03-18T23:19:02.813Z,101626.14
2023-03-18T23:21:37.577Z,101629.73
2023-03-18T23:24:06.652Z,101627.61
2023-03-18T23:26:36.964Z,101627.73
2023-03-18T23:29:06.879Z,101624.05
2023-03-18T23:31:35.803Z,101623.70
2023-03-18T23:34:07.997Z,101617.48
2023-03-18T23:36:37.651Z,101616.18
2023-03-18T23:39:10.645Z,101614.79
2023-03-18T23:41:42.825Z,101618.30
2023-03-18T23:44:11.530Z,101611.42
2023-03-18T23:46:42.483Z,101611.84
2023-03-18T23:49:13.992Z,101610.94
2023-03-18T23:51:45.275Z,101606.50
2023-03-18T23:54:13.960Z,101604.58
2023-03-18T23:56:54.823Z,101601.30
2023-03-18T23:59:26.196Z,101595.23
